Wetterdaten: aktuell Montag, 20.11.2017 01:20
Datum Zeit Temp. A. Feuchte A. Luftdruck Regen Wind Richtung Richtung Taupunkt Windchill Windben
20.11.2017 01:20 2,0 C 88 % 1023,5 hPa 0,0 l/m 24,4 km/h (4 Bft) W-SW 243 0,2 C -8,8 C 33,8 km/h (5 Bft)
20.11.2017 01:15 2,0 C 88 % 1023,6 hPa 0,0 l/m 23,4 km/h (4 Bft) W-SW 253 0,2 C -8,4 C 30,6 km/h (5 Bft)
20.11.2017 01:10 2,1 C 88 % 1023,5 hPa 0,0 l/m 22,6 km/h (4 Bft) W-SW 243 0,3 C -8,0 C 32,2 km/h (5 Bft)
20.11.2017 01:05 2,1 C 88 % 1023,5 hPa 0,0 l/m 24,7 km/h (4 Bft) SW 232 0,3 C -8,8 C 32,2 km/h (5 Bft)
20.11.2017 01:00 2,1 C 88 % 1023,6 hPa 0,0 l/m 25,9 km/h (4 Bft) W-SW 250 0,3 C -9,2 C 33,8 km/h (5 Bft)
20.11.2017 00:55 2,1 C 88 % 1023,6 hPa 0,0 l/m 27,6 km/h (5 Bft) W-SW 240 0,3 C -9,7 C 35,4 km/h (5 Bft)
20.11.2017 00:50 2,1 C 87 % 1023,5 hPa 0,0 l/m 25,6 km/h (4 Bft) W-SW 246 0,2 C -9,1 C 33,8 km/h (5 Bft)
20.11.2017 00:45 2,1 C 88 % 1023,5 hPa 0,0 l/m 25,0 km/h (4 Bft) W-SW 240 0,3 C -8,9 C 32,2 km/h (5 Bft)
20.11.2017 00:40 2,1 C 88 % 1023,6 hPa 0,0 l/m 23,9 km/h (4 Bft) W-SW 239 0,3 C -8,5 C 35,4 km/h (5 Bft)
20.11.2017 00:35 2,1 C 87 % 1023,6 hPa 0,0 l/m 26,1 km/h (4 Bft) SW 231 0,2 C -9,2 C 33,8 km/h (5 Bft)
20.11.2017 00:30 2,2 C 87 % 1023,6 hPa 0,0 l/m 25,3 km/h (4 Bft) SW 236 0,3 C -8,8 C 38,6 km/h (6 Bft)
20.11.2017 00:25 2,2 C 88 % 1023,5 hPa 0,0 l/m 24,0 km/h (4 Bft) SW 232 0,4 C -8,4 C 30,6 km/h (5 Bft)
20.11.2017 00:20 2,2 C 87 % 1023,4 hPa 0,0 l/m 28,0 km/h (5 Bft) W-SW 256 0,3 C -9,7 C 38,6 km/h (6 Bft)
20.11.2017 00:15 2,2 C 88 % 1023,5 hPa 0,0 l/m 24,1 km/h (4 Bft) W-SW 240 0,4 C -8,4 C 33,8 km/h (5 Bft)
20.11.2017 00:10 2,2 C 88 % 1023,4 hPa 0,0 l/m 25,0 km/h (4 Bft) SW 229 0,4 C -8,7 C 32,2 km/h (5 Bft)
20.11.2017 00:05 2,2 C 88 % 1023,5 hPa 0,0 l/m 23,3 km/h (4 Bft) W-SW 238 0,4 C -8,1 C 35,4 km/h (5 Bft)
20.11.2017 00:00 2,2 C 88 % 1023,4 hPa 0,0 l/m 21,1 km/h (4 Bft) SW 227 0,4 C -7,3 C 30,6 km/h (5 Bft)
19.11.2017 23:55 2,2 C 88 % 1023,4 hPa 0,0 l/m 25,4 km/h (4 Bft) W-SW 248 0,4 C -8,9 C 33,8 km/h (5 Bft)
19.11.2017 23:50 2,2 C 88 % 1023,5 hPa 0,0 l/m 24,2 km/h (4 Bft) W-SW 238 0,4 C -8,5 C 30,6 km/h (5 Bft)
19.11.2017 23:45 2,2 C 88 % 1023,4 hPa 0,0 l/m 23,6 km/h (4 Bft) W-SW 242 0,4 C -8,2 C 29,0 km/h (5 Bft)
19.11.2017 23:40 2,2 C 88 % 1023,4 hPa 0,0 l/m 25,5 km/h (4 Bft) W-SW 242 0,4 C -8,9 C 32,2 km/h (5 Bft)
19.11.2017 23:35 2,2 C 89 % 1023,3 hPa 0,0 l/m 24,7 km/h (4 Bft) SW 234 0,6 C -8,6 C 30,6 km/h (5 Bft)
19.11.2017 23:30 2,2 C 88 % 1023,3 hPa 0,0 l/m 23,4 km/h (4 Bft) W-SW 239 0,4 C -8,2 C 32,2 km/h (5 Bft)
19.11.2017 23:25 2,2 C 88 % 1023,3 hPa 0,0 l/m 25,1 km/h (4 Bft) W-SW 238 0,4 C -8,8 C 30,6 km/h (5 Bft)
19.11.2017 23:20 2,2 C 88 % 1023,3 hPa 0,0 l/m 22,1 km/h (4 Bft) SW 235 0,4 C -7,7 C 27,4 km/h (5 Bft)
19.11.2017 23:15 2,2 C 88 % 1023,3 hPa 0,0 l/m 23,1 km/h (4 Bft) W-SW 247 0,4 C -8,0 C 30,6 km/h (5 Bft)
19.11.2017 23:10 2,2 C 88 % 1023,3 hPa 0,0 l/m 22,7 km/h (4 Bft) SW 229 0,4 C -7,9 C 29,0 km/h (5 Bft)
19.11.2017 23:05 2,2 C 88 % 1023,4 hPa 0,0 l/m 20,1 km/h (4 Bft) W-SW 250 0,4 C -6,8 C 25,7 km/h (4 Bft)
19.11.2017 23:00 2,2 C 88 % 1023,4 hPa 0,0 l/m 23,8 km/h (4 Bft) W-SW 244 0,4 C -8,3 C 30,6 km/h (5 Bft)
19.11.2017 22:55 2,3 C 87 % 1023,3 hPa 0,0 l/m 20,5 km/h (4 Bft) W-SW 249 0,4 C -6,9 C 27,4 km/h (5 Bft)
19.11.2017 22:50 2,3 C 87 % 1023,3 hPa 0,0 l/m 22,5 km/h (4 Bft) W-SW 247 0,4 C -7,7 C 27,4 km/h (5 Bft)
19.11.2017 22:45 2,3 C 87 % 1023,2 hPa 0,0 l/m 22,0 km/h (4 Bft) W-SW 240 0,4 C -7,5 C 29,0 km/h (5 Bft)
19.11.2017 22:40 2,2 C 87 % 1023,1 hPa 0,0 l/m 24,7 km/h (4 Bft) W-SW 239 0,3 C -8,6 C 33,8 km/h (5 Bft)
19.11.2017 22:35 2,2 C 87 % 1023,0 hPa 0,0 l/m 24,0 km/h (4 Bft) W-SW 250 0,3 C -8,4 C 29,0 km/h (5 Bft)
19.11.2017 22:30 2,2 C 87 % 1023,0 hPa 0,0 l/m 26,3 km/h (4 Bft) W-SW 241 0,3 C -9,2 C 35,4 km/h (5 Bft)
19.11.2017 22:25 2,2 C 87 % 1023,0 hPa 0,0 l/m 26,5 km/h (4 Bft) SW 226 0,3 C -9,2 C 33,8 km/h (5 Bft)
19.11.2017 22:20 2,2 C 87 % 1023,1 hPa 0,0 l/m 24,9 km/h (4 Bft) W-SW 248 0,3 C -8,7 C 33,8 km/h (5 Bft)
19.11.2017 22:15 2,2 C 88 % 1023,1 hPa 0,0 l/m 27,2 km/h (5 Bft) SW 232 0,4 C -9,5 C 37,0 km/h (5 Bft)
19.11.2017 22:10 2,2 C 88 % 1023,1 hPa 0,0 l/m 28,9 km/h (5 Bft) SW 227 0,4 C -10,0 C 40,2 km/h (6 Bft)
19.11.2017 22:05 2,2 C 88 % 1023,0 hPa 0,0 l/m 24,7 km/h (4 Bft) SW 234 0,4 C -8,6 C 32,2 km/h (5 Bft)
19.11.2017 22:00 2,2 C 88 % 1023,0 hPa 0,0 l/m 23,2 km/h (4 Bft) SW 235 0,4 C -8,1 C 29,0 km/h (5 Bft)
19.11.2017 21:55 2,2 C 87 % 1023,0 hPa 0,0 l/m 23,7 km/h (4 Bft) SW 232 0,3 C -8,3 C 29,0 km/h (5 Bft)
19.11.2017 21:50 2,2 C 88 % 1023,0 hPa 0,0 l/m 22,5 km/h (4 Bft) W-SW 252 0,4 C -7,8 C 32,2 km/h (5 Bft)
19.11.2017 21:45 2,3 C 88 % 1022,9 hPa 0,0 l/m 21,2 km/h (4 Bft) SW 216 0,5 C -7,2 C 30,6 km/h (5 Bft)
19.11.2017 21:40 2,3 C 88 % 1022,9 hPa 0,0 l/m 21,0 km/h (4 Bft) W-SW 242 0,5 C -7,1 C 30,6 km/h (5 Bft)
19.11.2017 21:35 2,3 C 88 % 1022,9 hPa 0,0 l/m 26,2 km/h (4 Bft) W-SW 246 0,5 C -9,0 C 35,4 km/h (5 Bft)
19.11.2017 21:30 2,3 C 88 % 1022,9 hPa 0,0 l/m 22,7 km/h (4 Bft) SW 227 0,5 C -7,8 C 37,0 km/h (5 Bft)
19.11.2017 21:25 2,3 C 88 % 1022,8 hPa 0,0 l/m 26,5 km/h (4 Bft) W-SW 251 0,5 C -9,1 C 35,4 km/h (5 Bft)
19.11.2017 21:20 2,3 C 88 % 1022,8 hPa 0,0 l/m 25,4 km/h (4 Bft) SW 236 0,5 C -8,7 C 32,2 km/h (5 Bft)
19.11.2017 21:15 2,3 C 88 % 1022,7 hPa 0,0 l/m 23,9 km/h (4 Bft) SW 219 0,5 C -8,2 C 32,2 km/h (5 Bft)
19.11.2017 21:10 2,3 C 88 % 1022,7 hPa 0,0 l/m 23,6 km/h (4 Bft) SW 226 0,5 C -8,1 C 30,6 km/h (5 Bft)
19.11.2017 21:05 2,3 C 88 % 1022,6 hPa 0,0 l/m 24,8 km/h (4 Bft) SW 225 0,5 C -8,5 C 33,8 km/h (5 Bft)
19.11.2017 21:00 2,3 C 89 % 1022,6 hPa 0,0 l/m 23,5 km/h (4 Bft) W-SW 238 0,7 C -8,1 C 29,0 km/h (5 Bft)
19.11.2017 20:55 2,3 C 89 % 1022,5 hPa 0,0 l/m 23,8 km/h (4 Bft) W-SW 242 0,7 C -8,2 C 35,4 km/h (5 Bft)
19.11.2017 20:50 2,3 C 89 % 1022,4 hPa 0,0 l/m 22,9 km/h (4 Bft) SW 235 0,7 C -7,8 C 29,0 km/h (5 Bft)
19.11.2017 20:45 2,3 C 88 % 1022,4 hPa 0,0 l/m 22,0 km/h (4 Bft) SW 235 0,5 C -7,5 C 27,4 km/h (5 Bft)
19.11.2017 20:40 2,2 C 88 % 1022,4 hPa 0,0 l/m 20,7 km/h (4 Bft) SW 230 0,4 C -7,1 C 29,0 km/h (5 Bft)
19.11.2017 20:35 2,3 C 88 % 1022,4 hPa 0,0 l/m 19,3 km/h (3 Bft) SW 221 0,5 C -6,4 C 25,7 km/h (4 Bft)
19.11.2017 20:30 2,2 C 88 % 1022,3 hPa 0,0 l/m 19,3 km/h (3 Bft) SW 236 0,4 C -6,5 C 24,1 km/h (4 Bft)
19.11.2017 20:25 2,2 C 89 % 1022,2 hPa 0,0 l/m 21,0 km/h (4 Bft) W-SW 244 0,6 C -7,2 C 30,6 km/h (5 Bft)
19.11.2017 20:20 2,2 C 89 % 1022,3 hPa 0,0 l/m 18,5 km/h (3 Bft) W-SW 243 0,6 C -6,1 C 24,1 km/h (4 Bft)
19.11.2017 20:15 2,2 C 89 % 1022,3 hPa 0,0 l/m 18,0 km/h (3 Bft) W-SW 240 0,6 C -5,9 C 25,7 km/h (4 Bft)
19.11.2017 20:10 2,2 C 89 % 1022,2 hPa 0,0 l/m 16,9 km/h (3 Bft) W-SW 242 0,6 C -5,3 C 24,1 km/h (4 Bft)
19.11.2017 20:05 2,2 C 89 % 1022,1 hPa 0,0 l/m 19,8 km/h (3 Bft) SW 230 0,6 C -6,7 C 29,0 km/h (5 Bft)
19.11.2017 20:00 2,2 C 89 % 1022,1 hPa 0,0 l/m 18,3 km/h (3 Bft) W-SW 239 0,6 C -6,0 C 25,7 km/h (4 Bft)
19.11.2017 19:55 2,2 C 89 % 1022,0 hPa 0,0 l/m 17,5 km/h (3 Bft) SW 232 0,6 C -5,6 C 22,5 km/h (4 Bft)
19.11.2017 19:50 2,1 C 89 % 1021,9 hPa 0,0 l/m 18,9 km/h (3 Bft) W-SW 244 0,5 C -6,4 C 25,7 km/h (4 Bft)
19.11.2017 19:45 2,1 C 89 % 1021,8 hPa 0,0 l/m 20,4 km/h (4 Bft) SW 236 0,5 C -7,1 C 30,6 km/h (5 Bft)
19.11.2017 19:40 2,0 C 89 % 1021,7 hPa 0,0 l/m 18,7 km/h (3 Bft) W-SW 240 0,4 C -6,5 C 25,7 km/h (4 Bft)
19.11.2017 19:35 2,0 C 89 % 1021,7 hPa 0,0 l/m 18,1 km/h (3 Bft) W-SW 245 0,4 C -6,2 C 24,1 km/h (4 Bft)
19.11.2017 19:30 2,0 C 90 % 1021,7 hPa 0,0 l/m 18,8 km/h (3 Bft) SW 233 0,5 C -6,5 C 25,7 km/h (4 Bft)
19.11.2017 19:25 2,0 C 90 % 1021,6 hPa 0,0 l/m 17,3 km/h (3 Bft) SW 223 0,5 C -5,8 C 24,1 km/h (4 Bft)
19.11.2017 19:20 1,9 C 90 % 1021,5 hPa 0,0 l/m 18,0 km/h (3 Bft) W-SW 248 0,4 C -6,3 C 22,5 km/h (4 Bft)
19.11.2017 19:15 1,9 C 90 % 1021,5 hPa 0,0 l/m 17,9 km/h (3 Bft) SW 227 0,4 C -6,2 C 25,7 km/h (4 Bft)
19.11.2017 19:10 1,9 C 90 % 1021,4 hPa 0,0 l/m 16,4 km/h (3 Bft) SW 223 0,4 C -5,4 C 24,1 km/h (4 Bft)
19.11.2017 19:05 1,9 C 90 % 1021,4 hPa 0,0 l/m 20,2 km/h (4 Bft) SW 235 0,4 C -7,3 C 25,7 km/h (4 Bft)
19.11.2017 19:00 1,8 C 90 % 1021,3 hPa 0,0 l/m 20,0 km/h (4 Bft) W-SW 237 0,3 C -7,3 C 27,4 km/h (5 Bft)
19.11.2017 18:55 1,8 C 90 % 1021,3 hPa 0,0 l/m 21,8 km/h (4 Bft) SW 232 0,3 C -8,1 C 27,4 km/h (5 Bft)
19.11.2017 18:50 1,7 C 90 % 1021,2 hPa 0,0 l/m 23,0 km/h (4 Bft) SW 226 0,2 C -8,7 C 30,6 km/h (5 Bft)
19.11.2017 18:45 1,7 C 90 % 1021,1 hPa 0,0 l/m 23,5 km/h (4 Bft) W-SW 245 0,2 C -8,9 C 30,6 km/h (5 Bft)
19.11.2017 18:40 1,7 C 90 % 1021,1 hPa 0,0 l/m 17,3 km/h (3 Bft) SW 233 0,2 C -6,2 C 24,1 km/h (4 Bft)
19.11.2017 18:35 1,7 C 91 % 1021,0 hPa 0,0 l/m 15,0 km/h (3 Bft) W-SW 243 0,4 C -4,9 C 19,3 km/h (3 Bft)
19.11.2017 18:30 1,8 C 91 % 1021,0 hPa 0,0 l/m 19,1 km/h (3 Bft) W-SW 248 0,5 C -6,9 C 29,0 km/h (5 Bft)
19.11.2017 18:25 1,8 C 91 % 1021,0 hPa 0,0 l/m 14,7 km/h (3 Bft) SW 234 0,5 C -4,6 C 20,9 km/h (4 Bft)
19.11.2017 18:20 1,9 C 91 % 1021,0 hPa 0,0 l/m 17,4 km/h (3 Bft) SW 232 0,6 C -6,0 C 24,1 km/h (4 Bft)
19.11.2017 18:15 1,9 C 91 % 1021,0 hPa 0,0 l/m 17,8 km/h (3 Bft) W-SW 238 0,6 C -6,2 C 22,5 km/h (4 Bft)
19.11.2017 18:10 2,0 C 91 % 1021,0 hPa 0,0 l/m 16,1 km/h (3 Bft) W-SW 239 0,7 C -5,2 C 24,1 km/h (4 Bft)
19.11.2017 18:05 2,1 C 89 % 1021,0 hPa 0,0 l/m 15,4 km/h (3 Bft) W-SW 248 0,5 C -4,7 C 20,9 km/h (4 Bft)
19.11.2017 18:00 2,1 C 88 % 1020,9 hPa 0,0 l/m 16,9 km/h (3 Bft) SW 234 0,3 C -5,5 C 22,5 km/h (4 Bft)
19.11.2017 17:55 2,1 C 88 % 1020,8 hPa 0,0 l/m 17,4 km/h (3 Bft) SW 236 0,3 C -5,7 C 24,1 km/h (4 Bft)
19.11.2017 17:50 2,1 C 87 % 1020,6 hPa 0,0 l/m 17,3 km/h (3 Bft) SW 226 0,2 C -5,7 C 24,1 km/h (4 Bft)
19.11.2017 17:45 2,1 C 87 % 1020,7 hPa 0,0 l/m 19,6 km/h (3 Bft) W-SW 238 0,2 C -6,7 C 24,1 km/h (4 Bft)
19.11.2017 17:40 2,1 C 87 % 1020,6 hPa 0,0 l/m 23,6 km/h (4 Bft) W-SW 242 0,2 C -8,4 C 30,6 km/h (5 Bft)
19.11.2017 17:35 2,2 C 87 % 1020,6 hPa 0,0 l/m 21,5 km/h (4 Bft) SW 228 0,3 C -7,4 C 27,4 km/h (5 Bft)
19.11.2017 17:30 2,2 C 87 % 1020,4 hPa 0,0 l/m 18,9 km/h (3 Bft) W-SW 250 0,3 C -6,3 C 27,4 km/h (5 Bft)
19.11.2017 17:25 2,2 C 87 % 1020,4 hPa 0,0 l/m 20,1 km/h (4 Bft) W-SW 237 0,3 C -6,8 C 25,7 km/h (4 Bft)
19.11.2017 17:20 2,2 C 87 % 1020,4 hPa 0,0 l/m 21,5 km/h (4 Bft) W-SW 250 0,3 C -7,4 C 29,0 km/h (5 Bft)
19.11.2017 17:15 2,2 C 87 % 1020,4 hPa 0,0 l/m 20,5 km/h (4 Bft) W-SW 240 0,3 C -7,0 C 25,7 km/h (4 Bft)
19.11.2017 17:10 2,2 C 88 % 1020,3 hPa 0,0 l/m 21,3 km/h (4 Bft) W-SW 248 0,4 C -7,3 C 25,7 km/h (4 Bft)
19.11.2017 17:05 2,2 C 88 % 1020,3 hPa 0,0 l/m 20,3 km/h (4 Bft) SW 235 0,4 C -6,9 C 25,7 km/h (4 Bft)
19.11.2017 17:00 2,2 C 88 % 1020,3 hPa 0,0 l/m 21,4 km/h (4 Bft) W-SW 242 0,4 C -7,4 C 27,4 km/h (5 Bft)
19.11.2017 16:55 2,2 C 88 % 1020,2 hPa 0,0 l/m 19,9 km/h (4 Bft) W-SW 252 0,4 C -6,7 C 24,1 km/h (4 Bft)
19.11.2017 16:50 2,3 C 88 % 1020,2 hPa 0,0 l/m 17,8 km/h (3 Bft) W-SW 247 0,5 C -5,7 C 24,1 km/h (4 Bft)
19.11.2017 16:45 2,3 C 89 % 1020,2 hPa 0,0 l/m 19,4 km/h (3 Bft) W-SW 245 0,7 C -6,4 C 22,5 km/h (4 Bft)
19.11.2017 16:40 2,3 C 89 % 1020,1 hPa 0,0 l/m 18,3 km/h (3 Bft) W-SW 239 0,7 C -5,9 C 29,0 km/h (5 Bft)
19.11.2017 16:35 2,4 C 88 % 1020,2 hPa 0,0 l/m 16,1 km/h (3 Bft) W-SW 245 0,6 C -4,7 C 20,9 km/h (4 Bft)
19.11.2017 16:30 2,5 C 88 % 1020,2 hPa 0,0 l/m 15,7 km/h (3 Bft) SW 231 0,7 C -4,3 C 19,3 km/h (3 Bft)
19.11.2017 16:25 2,6 C 88 % 1020,1 hPa 0,0 l/m 18,5 km/h (3 Bft) W-SW 256 0,8 C -5,6 C 24,1 km/h (4 Bft)
19.11.2017 16:20 2,7 C 88 % 1020,1 hPa 0,0 l/m 18,0 km/h (3 Bft) W-SW 240 0,9 C -5,2 C 22,5 km/h (4 Bft)
19.11.2017 16:15 2,7 C 87 % 1019,9 hPa 0,0 l/m 18,2 km/h (3 Bft) W-SW 248 0,8 C -5,3 C 22,5 km/h (4 Bft)
19.11.2017 16:10 2,7 C 87 % 1019,9 hPa 0,0 l/m 18,7 km/h (3 Bft) W-SW 243 0,8 C -5,6 C 24,1 km/h (4 Bft)
19.11.2017 16:05 2,7 C 87 % 1019,8 hPa 0,0 l/m 19,8 km/h (3 Bft) W-SW 247 0,8 C -6,1 C 29,0 km/h (5 Bft)
19.11.2017 16:00 2,7 C 87 % 1019,8 hPa 0,0 l/m 20,1 km/h (4 Bft) SW 236 0,8 C -6,2 C 27,4 km/h (5 Bft)
19.11.2017 15:55 2,7 C 87 % 1019,9 hPa 0,0 l/m 18,0 km/h (3 Bft) W-SW 247 0,8 C -5,2 C 20,9 km/h (4 Bft)
19.11.2017 15:50 2,7 C 87 % 1019,8 hPa 0,0 l/m 15,6 km/h (3 Bft) W-SW 244 0,8 C -4,0 C 20,9 km/h (4 Bft)
19.11.2017 15:45 2,8 C 87 % 1019,8 hPa 0,0 l/m 16,4 km/h (3 Bft) W-SW 240 0,9 C -4,3 C 20,9 km/h (4 Bft)
19.11.2017 15:40 2,8 C 87 % 1019,8 hPa 0,0 l/m 17,0 km/h (3 Bft) W-SW 239 0,9 C -4,6 C 20,9 km/h (4 Bft)
19.11.2017 15:35 2,8 C 87 % 1019,8 hPa 0,0 l/m 16,3 km/h (3 Bft) SW 227 0,9 C -4,3 C 24,1 km/h (4 Bft)
19.11.2017 15:30 2,8 C 87 % 1019,7 hPa 0,0 l/m 15,7 km/h (3 Bft) SW 217 0,9 C -4,0 C 20,9 km/h (4 Bft)
19.11.2017 15:25 2,9 C 86 % 1019,8 hPa 0,0 l/m 16,8 km/h (3 Bft) W-SW 246 0,8 C -4,4 C 27,4 km/h (5 Bft)
19.11.2017 15:20 2,9 C 86 % 1019,7 hPa 0,0 l/m 15,1 km/h (3 Bft) SW 232 0,8 C -3,5 C 22,5 km/h (4 Bft)
19.11.2017 15:15 2,9 C 86 % 1019,7 hPa 0,0 l/m 15,6 km/h (3 Bft) W-SW 244 0,8 C -3,8 C 19,3 km/h (3 Bft)
19.11.2017 15:10 2,9 C 85 % 1019,5 hPa 0,0 l/m 19,2 km/h (3 Bft) W-SW 238 0,6 C -5,5 C 24,1 km/h (4 Bft)
19.11.2017 15:05 3,0 C 85 % 1019,5 hPa 0,0 l/m 19,6 km/h (3 Bft) W-SW 258 0,7 C -5,6 C 25,7 km/h (4 Bft)
19.11.2017 15:00 3,1 C 86 % 1019,4 hPa 0,0 l/m 17,5 km/h (3 Bft) W 259 1,0 C -4,5 C 22,5 km/h (4 Bft)
19.11.2017 14:55 3,0 C 86 % 1019,2 hPa 0,0 l/m 19,8 km/h (3 Bft) W-SW 248 0,9 C -5,7 C 24,1 km/h (4 Bft)
19.11.2017 14:50 3,0 C 86 % 1019,2 hPa 0,0 l/m 22,4 km/h (4 Bft) W-SW 241 0,9 C -6,7 C 30,6 km/h (5 Bft)
19.11.2017 14:45 3,1 C 87 % 1019,2 hPa 0,0 l/m 21,2 km/h (4 Bft) W-SW 254 1,2 C -6,1 C 29,0 km/h (5 Bft)
19.11.2017 14:40 3,1 C 87 % 1019,1 hPa 0,0 l/m 20,8 km/h (4 Bft) W-SW 244 1,2 C -6,0 C 25,7 km/h (4 Bft)
19.11.2017 14:35 3,1 C 86 % 1019,2 hPa 0,0 l/m 20,3 km/h (4 Bft) SW 236 1,0 C -5,8 C 29,0 km/h (5 Bft)
19.11.2017 14:30 3,1 C 86 % 1019,3 hPa 0,0 l/m 20,9 km/h (4 Bft) W-SW 251 1,0 C -6,0 C 27,4 km/h (5 Bft)
19.11.2017 14:25 3,2 C 84 % 1019,1 hPa 0,0 l/m 18,0 km/h (3 Bft) W-SW 245 0,8 C -4,6 C 25,7 km/h (4 Bft)
19.11.2017 14:20 3,2 C 84 % 1019,1 hPa 0,0 l/m 19,9 km/h (4 Bft) W-SW 250 0,8 C -5,5 C 25,7 km/h (4 Bft)
19.11.2017 14:15 3,3 C 84 % 1019,2 hPa 0,0 l/m 21,4 km/h (4 Bft) W-SW 250 0,9 C -5,9 C 27,4 km/h (5 Bft)
19.11.2017 14:10 3,5 C 83 % 1019,2 hPa 0,0 l/m 23,0 km/h (4 Bft) W 260 0,9 C -6,3 C 29,0 km/h (5 Bft)
19.11.2017 14:05 3,7 C 82 % 1019,1 hPa 0,0 l/m 24,0 km/h (4 Bft) W 260 0,9 C -6,4 C 30,6 km/h (5 Bft)
19.11.2017 14:00 4,0 C 82 % 1019,1 hPa 0,0 l/m 24,0 km/h (4 Bft) W 274 1,2 C -6,0 C 32,2 km/h (5 Bft)
19.11.2017 13:55 4,3 C 82 % 1019,0 hPa 0,0 l/m 24,4 km/h (4 Bft) W-SW 248 1,5 C -5,7 C 33,8 km/h (5 Bft)
19.11.2017 13:50 4,4 C 83 % 1019,0 hPa 0,0 l/m 20,1 km/h (4 Bft) W 260 1,8 C -4,0 C 30,6 km/h (5 Bft)
19.11.2017 13:45 4,2 C 85 % 1019,0 hPa 0,0 l/m 19,2 km/h (3 Bft) W 267 1,9 C -3,9 C 32,2 km/h (5 Bft)
19.11.2017 13:40 3,9 C 85 % 1019,0 hPa 0,0 l/m 25,6 km/h (4 Bft) W 271 1,6 C -6,6 C 40,2 km/h (6 Bft)
19.11.2017 13:35 3,6 C 87 % 1018,9 hPa 0,0 l/m 28,1 km/h (5 Bft) W-SW 254 1,6 C -7,8 C 40,2 km/h (6 Bft)
19.11.2017 13:30 3,5 C 89 % 1018,9 hPa 0,0 l/m 27,9 km/h (5 Bft) W-SW 248 1,9 C -7,9 C 35,4 km/h (5 Bft)
19.11.2017 13:25 3,4 C 90 % 1018,8 hPa 0,0 l/m 28,1 km/h (5 Bft) W-SW 252 1,9 C -8,1 C 35,4 km/h (5 Bft)
19.11.2017 13:20 3,3 C 90 % 1018,9 hPa 0,0 l/m 25,6 km/h (4 Bft) W-SW 246 1,8 C -7,4 C 33,8 km/h (5 Bft)
19.11.2017 13:15 3,3 C 89 % 1018,9 hPa 0,0 l/m 28,8 km/h (5 Bft) W 267 1,7 C -8,4 C 43,5 km/h (6 Bft)
19.11.2017 13:10 3,3 C 87 % 1018,9 hPa 0,0 l/m 22,2 km/h (4 Bft) W 263 1,3 C -6,2 C 30,6 km/h (5 Bft)
19.11.2017 13:05 3,4 C 88 % 1018,9 hPa 0,0 l/m 23,0 km/h (4 Bft) W 269 1,6 C -6,4 C 30,6 km/h (5 Bft)
19.11.2017 13:00 3,4 C 88 % 1018,8 hPa 0,0 l/m 17,6 km/h (3 Bft) W 261 1,6 C -4,2 C 24,1 km/h (4 Bft)
19.11.2017 12:55 3,2 C 88 % 1018,9 hPa 0,0 l/m 18,1 km/h (3 Bft) W-NW 296 1,4 C -4,7 C 22,5 km/h (4 Bft)
19.11.2017 12:50 2,9 C 88 % 1018,9 hPa 0,0 l/m 23,9 km/h (4 Bft) W 271 1,1 C -7,4 C 33,8 km/h (5 Bft)
19.11.2017 12:45 2,6 C 87 % 1018,8 hPa 0,0 l/m 19,0 km/h (3 Bft) W 272 0,7 C -5,8 C 27,4 km/h (5 Bft)
19.11.2017 12:40 2,6 C 87 % 1018,7 hPa 0,0 l/m 20,9 km/h (4 Bft) W-NW 284 0,7 C -6,7 C 27,4 km/h (5 Bft)
19.11.2017 12:35 2,6 C 87 % 1018,7 hPa 0,0 l/m 25,2 km/h (4 Bft) W 279 0,7 C -8,3 C 38,6 km/h (6 Bft)
19.11.2017 12:30 2,5 C 86 % 1018,8 hPa 0,0 l/m 25,1 km/h (4 Bft) W 270 0,4 C -8,4 C 33,8 km/h (5 Bft)
19.11.2017 12:25 2,4 C 87 % 1018,8 hPa 0,0 l/m 27,2 km/h (5 Bft) W 267 0,5 C -9,2 C 43,5 km/h (6 Bft)
19.11.2017 12:20 2,4 C 88 % 1018,9 hPa 0,0 l/m 21,1 km/h (4 Bft) W 266 0,6 C -7,0 C 27,4 km/h (5 Bft)
19.11.2017 12:15 2,3 C 88 % 1018,9 hPa 0,0 l/m 25,7 km/h (4 Bft) W 271 0,5 C -8,8 C 37,0 km/h (5 Bft)
19.11.2017 12:10 2,2 C 88 % 1018,9 hPa 0,0 l/m 25,2 km/h (4 Bft) W 265 0,4 C -8,8 C 43,5 km/h (6 Bft)
19.11.2017 12:05 2,2 C 89 % 1018,8 hPa 0,0 l/m 25,3 km/h (4 Bft) W 273 0,6 C -8,8 C 41,8 km/h (6 Bft)
19.11.2017 12:00 2,2 C 90 % 1018,8 hPa 0,0 l/m 21,8 km/h (4 Bft) W-SW 254 0,7 C -7,5 C 32,2 km/h (5 Bft)
19.11.2017 11:55 2,1 C 91 % 1018,7 hPa 0,0 l/m 20,7 km/h (4 Bft) W-NW 288 0,8 C -7,2 C 27,4 km/h (5 Bft)
19.11.2017 11:50 2,1 C 91 % 1018,7 hPa 0,0 l/m 21,8 km/h (4 Bft) W 273 0,8 C -7,7 C 33,8 km/h (5 Bft)
19.11.2017 11:45 2,2 C 92 % 1018,7 hPa 0,0 l/m 17,6 km/h (3 Bft) W-SW 248 1,0 C -5,7 C 25,7 km/h (4 Bft)
19.11.2017 11:40 2,1 C 92 % 1018,8 hPa 0,0 l/m 21,1 km/h (4 Bft) W 277 0,9 C -7,4 C 32,2 km/h (5 Bft)
19.11.2017 11:35 2,1 C 92 % 1018,8 hPa 0,0 l/m 21,6 km/h (4 Bft) W 265 0,9 C -7,6 C 30,6 km/h (5 Bft)
19.11.2017 11:30 2,1 C 92 % 1018,6 hPa 0,0 l/m 19,1 km/h (3 Bft) W-NW 284 0,9 C -6,5 C 32,2 km/h (5 Bft)
19.11.2017 11:25 2,1 C 92 % 1018,6 hPa 0,0 l/m 16,2 km/h (3 Bft) W 275 0,9 C -5,1 C 22,5 km/h (4 Bft)
19.11.2017 11:20 2,1 C 92 % 1018,5 hPa 0,0 l/m 22,1 km/h (4 Bft) W 261 0,9 C -7,8 C 30,6 km/h (5 Bft)
19.11.2017 11:15 2,1 C 93 % 1018,5 hPa 0,0 l/m 18,3 km/h (3 Bft) W-NW 288 1,1 C -6,1 C 27,4 km/h (5 Bft)
19.11.2017 11:10 2,1 C 93 % 1018,5 hPa 0,0 l/m 18,8 km/h (3 Bft) NW 304 1,1 C -6,4 C 25,7 km/h (4 Bft)
19.11.2017 11:05 2,1 C 93 % 1018,4 hPa 0,0 l/m 22,1 km/h (4 Bft) W-SW 257 1,1 C -7,8 C 29,0 km/h (5 Bft)
19.11.2017 11:00 2,1 C 93 % 1018,4 hPa 0,0 l/m 25,1 km/h (4 Bft) W-SW 255 1,1 C -8,9 C 37,0 km/h (5 Bft)
19.11.2017 10:55 2,1 C 94 % 1018,2 hPa 0,0 l/m 22,2 km/h (4 Bft) W 263 1,2 C -7,8 C 37,0 km/h (5 Bft)
19.11.2017 10:50 2,1 C 94 % 1018,2 hPa 0,0 l/m 16,9 km/h (3 Bft) W 259 1,2 C -5,5 C 22,5 km/h (4 Bft)
19.11.2017 10:45 2,1 C 94 % 1018,0 hPa 0,0 l/m 18,6 km/h (3 Bft) W-SW 252 1,2 C -6,3 C 25,7 km/h (4 Bft)
19.11.2017 10:40 2,0 C 94 % 1018,1 hPa 0,0 l/m 19,9 km/h (4 Bft) W 274 1,1 C -7,0 C 29,0 km/h (5 Bft)
19.11.2017 10:35 1,9 C 94 % 1018,0 hPa 0,0 l/m 22,3 km/h (4 Bft) W-NW 285 1,0 C -8,1 C 40,2 km/h (6 Bft)
19.11.2017 10:30 1,9 C 94 % 1017,8 hPa 0,0 l/m 22,4 km/h (4 Bft) W 281 1,0 C -8,2 C 33,8 km/h (5 Bft)
19.11.2017 10:25 1,8 C 94 % 1017,7 hPa 0,0 l/m 21,5 km/h (4 Bft) W 263 0,9 C -7,9 C 37,0 km/h (5 Bft)
19.11.2017 10:20 1,8 C 94 % 1017,7 hPa 0,0 l/m 25,7 km/h (4 Bft) W-SW 256 0,9 C -9,5 C 33,8 km/h (5 Bft)
19.11.2017 10:15 1,8 C 95 % 1017,7 hPa 0,0 l/m 25,4 km/h (4 Bft) W 274 1,1 C -9,4 C 45,1 km/h (6 Bft)
19.11.2017 10:10 1,8 C 94 % 1017,5 hPa 0,0 l/m 19,6 km/h (3 Bft) W 267 0,9 C -7,1 C 29,0 km/h (5 Bft)
19.11.2017 10:05 1,8 C 95 % 1017,4 hPa 0,0 l/m 21,8 km/h (4 Bft) W-SW 252 1,1 C -8,1 C 30,6 km/h (5 Bft)
19.11.2017 10:00 1,7 C 95 % 1017,3 hPa 0,0 l/m 29,4 km/h (5 Bft) W-SW 256 1,0 C -10,8 C 41,8 km/h (6 Bft)
19.11.2017 09:55 1,7 C 95 % 1017,3 hPa 0,0 l/m 20,2 km/h (4 Bft) W-SW 258 1,0 C -7,5 C 29,0 km/h (5 Bft)
19.11.2017 09:50 1,7 C 95 % 1017,2 hPa 0,0 l/m 20,6 km/h (4 Bft) W 280 1,0 C -7,7 C 30,6 km/h (5 Bft)
19.11.2017 09:45 1,7 C 95 % 1017,2 hPa 0,0 l/m 22,9 km/h (4 Bft) W 279 1,0 C -8,6 C 37,0 km/h (5 Bft)
19.11.2017 09:40 1,7 C 95 % 1017,0 hPa 0,0 l/m 25,3 km/h (4 Bft) W 275 1,0 C -9,5 C 37,0 km/h (5 Bft)
19.11.2017 09:35 1,6 C 95 % 1016,9 hPa 0,0 l/m 24,7 km/h (4 Bft) W 272 0,9 C -9,4 C 32,2 km/h (5 Bft)
19.11.2017 09:30 1,6 C 94 % 1016,9 hPa 0,0 l/m 27,2 km/h (5 Bft) W-NW 289 0,7 C -10,3 C 40,2 km/h (6 Bft)
19.11.2017 09:25 1,6 C 94 % 1016,8 hPa 0,2 l/m 27,1 km/h (5 Bft) W 265 0,7 C -10,3 C 38,6 km/h (6 Bft)
19.11.2017 09:20 1,6 C 94 % 1016,9 hPa 0,0 l/m 26,5 km/h (4 Bft) W-NW 282 0,7 C -10,1 C 40,2 km/h (6 Bft)
19.11.2017 09:15 1,6 C 94 % 1016,8 hPa 0,0 l/m 24,7 km/h (4 Bft) W 270 0,7 C -9,4 C 30,6 km/h (5 Bft)
19.11.2017 09:10 1,7 C 94 % 1016,7 hPa 0,0 l/m 27,2 km/h (5 Bft) W 263 0,8 C -10,2 C 40,2 km/h (6 Bft)
19.11.2017 09:05 1,8 C 94 % 1016,7 hPa 0,0 l/m 23,9 km/h (4 Bft) W 280 0,9 C -8,9 C 38,6 km/h (6 Bft)
19.11.2017 09:00 1,9 C 94 % 1016,6 hPa 0,0 l/m 21,7 km/h (4 Bft) W 275 1,0 C -7,9 C 35,4 km/h (5 Bft)
19.11.2017 08:55 2,1 C 94 % 1016,4 hPa 0,2 l/m 18,9 km/h (3 Bft) W 265 1,2 C -6,4 C 29,0 km/h (5 Bft)
19.11.2017 08:50 2,3 C 94 % 1016,4 hPa 0,0 l/m 21,5 km/h (4 Bft) NW 304 1,4 C -7,3 C 32,2 km/h (5 Bft)
19.11.2017 08:45 2,4 C 94 % 1016,2 hPa 0,0 l/m 24,0 km/h (4 Bft) W 279 1,5 C -8,1 C 38,6 km/h (6 Bft)
19.11.2017 08:40 2,3 C 94 % 1016,1 hPa 0,0 l/m 29,6 km/h (5 Bft) W 278 1,4 C -10,1 C 43,5 km/h (6 Bft)
19.11.2017 08:35 2,3 C 94 % 1016,0 hPa 0,0 l/m 23,7 km/h (4 Bft) W 261 1,4 C -8,1 C 33,8 km/h (5 Bft)
19.11.2017 08:30 2,3 C 94 % 1015,9 hPa 0,0 l/m 26,6 km/h (4 Bft) W 261 1,4 C -9,1 C 35,4 km/h (5 Bft)
19.11.2017 08:25 2,3 C 94 % 1015,9 hPa 0,2 l/m 25,6 km/h (4 Bft) SW 235 1,4 C -8,8 C 32,2 km/h (5 Bft)
19.11.2017 08:20 2,4 C 94 % 1015,8 hPa 0,0 l/m 30,7 km/h (5 Bft) W-SW 254 1,5 C -10,2 C 40,2 km/h (6 Bft)
19.11.2017 08:15 2,4 C 94 % 1015,7 hPa 0,0 l/m 29,3 km/h (5 Bft) W 271 1,5 C -9,8 C 43,5 km/h (6 Bft)
19.11.2017 08:10 2,5 C 94 % 1015,7 hPa 0,2 l/m 31,4 km/h (5 Bft) W-SW 257 1,6 C -10,3 C 46,7 km/h (6 Bft)
19.11.2017 08:05 2,5 C 93 % 1015,6 hPa 0,0 l/m 38,1 km/h (6 Bft) W 280 1,5 C -11,8 C 48,3 km/h (6 Bft)
19.11.2017 08:01 2,5 C 93 % 1015,6 hPa 0,0 l/m 33,7 km/h (5 Bft) W 267 1,5 C -10,9 C 46,7 km/h (6 Bft)
19.11.2017 07:55 2,4 C 93 % 1015,5 hPa 0,0 l/m 35,8 km/h (5 Bft) W 259 1,4 C -11,5 C 48,3 km/h (6 Bft)
19.11.2017 07:50 2,4 C 94 % 1015,6 hPa 0,0 l/m 27,6 km/h (5 Bft) W 259 1,5 C -9,3 C 37,0 km/h (5 Bft)
19.11.2017 07:45 2,4 C 94 % 1015,6 hPa 0,0 l/m 24,1 km/h (4 Bft) W 261 1,5 C -8,1 C 33,8 km/h (5 Bft)
19.11.2017 07:40 2,4 C 94 % 1015,5 hPa 0,0 l/m 23,6 km/h (4 Bft) W-SW 247 1,5 C -8,0 C 32,2 km/h (5 Bft)
19.11.2017 07:35 2,4 C 94 % 1015,5 hPa 0,0 l/m 21,8 km/h (4 Bft) W-SW 251 1,5 C -7,3 C 27,4 km/h (5 Bft)
19.11.2017 07:30 2,3 C 94 % 1015,4 hPa 0,0 l/m 28,6 km/h (5 Bft) W 266 1,4 C -9,8 C 35,4 km/h (5 Bft)
19.11.2017 07:25 2,3 C 94 % 1015,5 hPa 0,0 l/m 25,0 km/h (4 Bft) W-SW 257 1,4 C -8,6 C 33,8 km/h (5 Bft)
19.11.2017 07:21 2,3 C 94 % 1015,5 hPa 0,0 l/m 20,4 km/h (4 Bft) W 279 1,4 C -6,8 C 29,0 km/h (5 Bft)
19.11.2017 07:15 2,2 C 94 % 1015,4 hPa 0,0 l/m 24,4 km/h (4 Bft) W-SW 242 1,3 C -8,5 C 32,2 km/h (5 Bft)
19.11.2017 07:10 2,2 C 94 % 1015,4 hPa 0,0 l/m 25,6 km/h (4 Bft) W 262 1,3 C -8,9 C 33,8 km/h (5 Bft)
19.11.2017 07:06 2,2 C 94 % 1015,4 hPa 0,0 l/m 24,5 km/h (4 Bft) W-SW 258 1,3 C -8,6 C 32,2 km/h (5 Bft)
19.11.2017 07:00 2,2 C 94 % 1015,4 hPa 0,0 l/m 32,2 km/h (5 Bft) W-SW 256 1,3 C -10,9 C 43,5 km/h (6 Bft)
19.11.2017 06:55 2,1 C 94 % 1015,4 hPa 0,0 l/m 27,9 km/h (5 Bft) W-SW 250 1,2 C -9,8 C 35,4 km/h (5 Bft)
19.11.2017 06:50 2,1 C 95 % 1015,4 hPa 0,0 l/m 25,4 km/h (4 Bft) W-SW 244 1,4 C -9,0 C 32,2 km/h (5 Bft)
19.11.2017 06:45 2,1 C 95 % 1015,4 hPa 0,0 l/m 27,3 km/h (5 Bft) W-SW 254 1,4 C -9,6 C 40,2 km/h (6 Bft)
19.11.2017 06:40 2,0 C 95 % 1015,4 hPa 0,0 l/m 23,2 km/h (4 Bft) W-SW 254 1,3 C -8,4 C 30,6 km/h (5 Bft)
19.11.2017 06:35 1,9 C 95 % 1015,4 hPa 0,0 l/m 25,4 km/h (4 Bft) W-SW 240 1,2 C -9,3 C 33,8 km/h (5 Bft)
19.11.2017 06:30 1,9 C 95 % 1015,4 hPa 0,0 l/m 24,4 km/h (4 Bft) SW 229 1,2 C -8,9 C 37,0 km/h (5 Bft)
19.11.2017 06:25 1,8 C 95 % 1015,4 hPa 0,0 l/m 22,6 km/h (4 Bft) W-SW 243 1,1 C -8,4 C 29,0 km/h (5 Bft)
19.11.2017 06:20 1,7 C 95 % 1015,4 hPa 0,0 l/m 22,1 km/h (4 Bft) W-SW 240 1,0 C -8,3 C 30,6 km/h (5 Bft)
19.11.2017 06:15 1,6 C 95 % 1015,4 hPa 0,0 l/m 19,5 km/h (3 Bft) W-SW 253 0,9 C -7,3 C 30,6 km/h (5 Bft)
19.11.2017 06:10 1,6 C 95 % 1015,4 hPa 0,0 l/m 18,7 km/h (3 Bft) SW 235 0,9 C -7,0 C 24,1 km/h (4 Bft)
19.11.2017 06:05 1,6 C 95 % 1015,5 hPa 0,0 l/m 19,9 km/h (4 Bft) W-SW 244 0,9 C -7,5 C 29,0 km/h (5 Bft)
19.11.2017 06:00 1,6 C 95 % 1015,5 hPa 0,0 l/m 19,8 km/h (3 Bft) SW 233 0,9 C -7,5 C 27,4 km/h (5 Bft)
19.11.2017 05:55 1,6 C 95 % 1015,5 hPa 0,0 l/m 18,6 km/h (3 Bft) W-SW 244 0,9 C -6,9 C 27,4 km/h (5 Bft)
19.11.2017 05:50 1,5 C 95 % 1015,5 hPa 0,2 l/m 18,8 km/h (3 Bft) SW 225 0,8 C -7,1 C 24,1 km/h (4 Bft)
19.11.2017 05:45 1,5 C 95 % 1015,5 hPa 0,0 l/m 18,7 km/h (3 Bft) SW 224 0,8 C -7,1 C 24,1 km/h (4 Bft)
19.11.2017 05:40 1,6 C 95 % 1015,5 hPa 0,2 l/m 21,9 km/h (4 Bft) SW 223 0,9 C -8,4 C 29,0 km/h (5 Bft)
19.11.2017 05:35 1,7 C 95 % 1015,6 hPa 0,2 l/m 20,6 km/h (4 Bft) SW 227 1,0 C -7,7 C 27,4 km/h (5 Bft)
19.11.2017 05:30 1,7 C 95 % 1015,5 hPa 0,0 l/m 18,9 km/h (3 Bft) SW 221 1,0 C -6,9 C 27,4 km/h (5 Bft)
19.11.2017 05:25 1,8 C 95 % 1015,5 hPa 0,0 l/m 20,3 km/h (4 Bft) SW 236 1,1 C -7,4 C 25,7 km/h (4 Bft)
19.11.2017 05:20 1,8 C 95 % 1015,5 hPa 0,0 l/m 20,6 km/h (4 Bft) SW 224 1,1 C -7,6 C 25,7 km/h (4 Bft)
19.11.2017 05:15 1,8 C 95 % 1015,4 hPa 0,2 l/m 25,5 km/h (4 Bft) SW 234 1,1 C -9,5 C 33,8 km/h (5 Bft)
19.11.2017 05:10 1,8 C 95 % 1015,3 hPa 0,0 l/m 20,9 km/h (4 Bft) SW 220 1,1 C -7,7 C 29,0 km/h (5 Bft)
19.11.2017 05:05 1,7 C 95 % 1015,4 hPa 0,0 l/m 24,6 km/h (4 Bft) W-SW 241 1,0 C -9,3 C 32,2 km/h (5 Bft)
19.11.2017 05:00 1,8 C 95 % 1015,5 hPa 0,2 l/m 25,9 km/h (4 Bft) SW 230 1,1 C -9,6 C 32,2 km/h (5 Bft)
19.11.2017 04:55 1,7 C 95 % 1015,5 hPa 0,0 l/m 26,3 km/h (4 Bft) SW 222 1,0 C -9,9 C 33,8 km/h (5 Bft)
19.11.2017 04:50 1,7 C 95 % 1015,6 hPa 0,2 l/m 25,4 km/h (4 Bft) SW 223 1,0 C -9,6 C 33,8 km/h (5 Bft)
19.11.2017 04:45 1,6 C 96 % 1015,6 hPa 0,0 l/m 26,1 km/h (4 Bft) SW 233 1,0 C -9,9 C 33,8 km/h (5 Bft)
19.11.2017 04:40 1,5 C 95 % 1015,7 hPa 0,0 l/m 26,4 km/h (4 Bft) SW 224 0,8 C -10,2 C 33,8 km/h (5 Bft)
19.11.2017 04:35 1,4 C 95 % 1015,6 hPa 0,0 l/m 22,9 km/h (4 Bft) SW 228 0,7 C -9,0 C 30,6 km/h (5 Bft)
19.11.2017 04:30 1,4 C 95 % 1015,6 hPa 0,0 l/m 22,5 km/h (4 Bft) SW 232 0,7 C -8,9 C 29,0 km/h (5 Bft)
19.11.2017 04:25 1,3 C 95 % 1015,6 hPa 0,0 l/m 23,3 km/h (4 Bft) SW 226 0,6 C -9,3 C 32,2 km/h (5 Bft)
19.11.2017 04:20 1,3 C 95 % 1015,6 hPa 0,0 l/m 20,5 km/h (4 Bft) SW 221 0,6 C -8,2 C 29,0 km/h (5 Bft)
19.11.2017 04:15 1,3 C 95 % 1015,6 hPa 0,0 l/m 18,5 km/h (3 Bft) S-SW 207 0,6 C -7,3 C 24,1 km/h (4 Bft)
19.11.2017 04:10 1,2 C 95 % 1015,6 hPa 0,0 l/m 18,4 km/h (3 Bft) S-SW 207 0,5 C -7,3 C 25,7 km/h (4 Bft)
19.11.2017 04:05 1,2 C 95 % 1015,7 hPa 0,0 l/m 17,5 km/h (3 Bft) SW 219 0,5 C -6,9 C 22,5 km/h (4 Bft)
19.11.2017 04:00 1,2 C 95 % 1015,6 hPa 0,0 l/m 18,7 km/h (3 Bft) S-SW 202 0,5 C -7,5 C 24,1 km/h (4 Bft)
19.11.2017 03:55 1,2 C 95 % 1015,6 hPa 0,0 l/m 19,1 km/h (3 Bft) S-SW 207 0,5 C -7,7 C 27,4 km/h (5 Bft)
19.11.2017 03:50 1,2 C 95 % 1015,7 hPa 0,0 l/m 20,7 km/h (4 Bft) S-SW 192 0,5 C -8,4 C 29,0 km/h (5 Bft)
19.11.2017 03:45 1,2 C 95 % 1015,8 hPa 0,2 l/m 18,4 km/h (3 Bft) S-SW 201 0,5 C -7,3 C 29,0 km/h (5 Bft)
19.11.2017 03:40 1,2 C 95 % 1016,1 hPa 0,0 l/m 23,1 km/h (4 Bft) SW 223 0,5 C -9,4 C 32,2 km/h (5 Bft)
19.11.2017 03:35 1,2 C 95 % 1016,2 hPa 0,2 l/m 22,1 km/h (4 Bft) SW 218 0,5 C -9,0 C 29,0 km/h (5 Bft)
19.11.2017 03:30 1,2 C 95 % 1016,2 hPa 0,0 l/m 21,4 km/h (4 Bft) SW 228 0,5 C -8,7 C 33,8 km/h (5 Bft)
19.11.2017 03:25 1,2 C 95 % 1016,1 hPa 0,0 l/m 20,9 km/h (4 Bft) S-SW 202 0,5 C -8,5 C 33,8 km/h (5 Bft)
19.11.2017 03:20 1,2 C 95 % 1016,2 hPa 0,0 l/m 22,5 km/h (4 Bft) S-SW 205 0,5 C -9,1 C 30,6 km/h (5 Bft)
19.11.2017 03:15 1,1 C 95 % 1016,1 hPa 0,2 l/m 21,0 km/h (4 Bft) S-SW 198 0,4 C -8,7 C 33,8 km/h (5 Bft)
19.11.2017 03:10 1,1 C 95 % 1016,2 hPa 0,2 l/m 17,7 km/h (3 Bft) S-SW 203 0,4 C -7,1 C 25,7 km/h (4 Bft)
19.11.2017 03:05 1,1 C 95 % 1016,4 hPa 0,0 l/m 18,7 km/h (3 Bft) S-SW 198 0,4 C -7,6 C 29,0 km/h (5 Bft)
19.11.2017 03:00 1,0 C 95 % 1016,6 hPa 0,2 l/m 18,1 km/h (3 Bft) S-SW 198 0,3 C -7,4 C 27,4 km/h (5 Bft)
19.11.2017 02:55 1,0 C 95 % 1016,7 hPa 0,0 l/m 17,9 km/h (3 Bft) S-SW 209 0,3 C -7,3 C 24,1 km/h (4 Bft)
19.11.2017 02:50 1,0 C 95 % 1016,9 hPa 0,2 l/m 20,5 km/h (4 Bft) S-SW 210 0,3 C -8,6 C 32,2 km/h (5 Bft)
19.11.2017 02:45 1,0 C 95 % 1016,9 hPa 0,0 l/m 18,7 km/h (3 Bft) SW 220 0,3 C -7,7 C 25,7 km/h (4 Bft)
19.11.2017 02:40 1,0 C 95 % 1017,0 hPa 0,0 l/m 17,9 km/h (3 Bft) S-SW 199 0,3 C -7,3 C 25,7 km/h (4 Bft)
19.11.2017 02:35 1,0 C 94 % 1017,3 hPa 0,0 l/m 13,6 km/h (3 Bft) SW 219 0,1 C -4,9 C 25,7 km/h (4 Bft)
19.11.2017 02:30 1,0 C 94 % 1017,4 hPa 0,0 l/m 15,0 km/h (3 Bft) S-SW 198 0,1 C -5,8 C 27,4 km/h (5 Bft)
19.11.2017 02:25 1,0 C 94 % 1017,5 hPa 0,2 l/m 16,4 km/h (3 Bft) S-SW 201 0,1 C -6,6 C 27,4 km/h (5 Bft)
19.11.2017 02:20 1,0 C 94 % 1017,5 hPa 0,0 l/m 15,0 km/h (3 Bft) S 180 0,1 C -5,8 C 25,7 km/h (4 Bft)
19.11.2017 02:15 1,0 C 94 % 1017,6 hPa 0,2 l/m 14,7 km/h (3 Bft) S 188 0,1 C -5,6 C 22,5 km/h (4 Bft)
19.11.2017 02:10 1,1 C 94 % 1017,7 hPa 0,0 l/m 10,9 km/h (2 Bft) S-SW 207 0,2 C -2,9 C 17,7 km/h (3 Bft)
19.11.2017 02:05 1,1 C 93 % 1017,9 hPa 0,0 l/m 9,9 km/h (2 Bft) S-SW 209 0,1 C -2,2 C 16,1 km/h (3 Bft)
19.11.2017 02:00 1,1 C 93 % 1018,0 hPa 0,2 l/m 10,8 km/h (2 Bft) S-SW 209 0,1 C -2,9 C 19,3 km/h (3 Bft)
_ Min-Zeit 03:00 14:05 05:10 - 02:05 - - 02:05 08:05 02:05
Minimum _ 1,0 C 82 % 1015,3 hPa - 9,9 km/h (2 Bft) - - 0,1 C -11,8 C 16,1 km/h (3 Bft)
_ Max-Zeit 13:50 04:45 01:15 09:25 08:05 - - 13:25 02:05 08:05
Maximum _ 4,4 C 96 % 1023,6 hPa 0,2 l/m 38,1 km/h
W (6 Bft)
- - 1,9 C -2,2 C 48,3 km/h
W (6 Bft)
Durchschnitt _ 2,1 C 91 % 1019,1 hPa #3,8 l/m 21,0 km/h (4 Bft) W-SW - 0,7 C -7,1 C 29,3 km/h (5 Bft)